sensor_id;sensor_type;location;lat;lon;timestamp;P1;durP1;ratioP1;P2;durP2;ratioP2
6665;SDS011;3369;49.906;8.598;2023-05-23T00:00:25;21.60;;;19.40;;
6665;SDS011;3369;49.906;8.598;2023-05-23T00:02:51;23.60;;;20.10;;
6665;SDS011;3369;49.906;8.598;2023-05-23T00:05:17;23.90;;;20.40;;
6665;SDS011;3369;49.906;8.598;2023-05-23T00:07:45;23.27;;;19.87;;
6665;SDS011;3369;49.906;8.598;2023-05-23T00:10:12;25.50;;;21.43;;
6665;SDS011;3369;49.906;8.598;2023-05-23T00:12:38;24.13;;;20.27;;
6665;SDS011;3369;49.906;8.598;2023-05-23T00:15:06;24.07;;;21.00;;
6665;SDS011;3369;49.906;8.598;2023-05-23T00:17:33;21.43;;;19.10;;
6665;SDS011;3369;49.906;8.598;2023-05-23T00:20:03;24.93;;;21.33;;
6665;SDS011;3369;49.906;8.598;2023-05-23T00:22:30;22.50;;;20.10;;
6665;SDS011;3369;49.906;8.598;2023-05-23T00:24:55;21.00;;;18.90;;
6665;SDS011;3369;49.906;8.598;2023-05-23T00:27:22;22.90;;;20.03;;
6665;SDS011;3369;49.906;8.598;2023-05-23T00:29:47;20.90;;;18.70;;
6665;SDS011;3369;49.906;8.598;2023-05-23T00:32:13;20.47;;;18.27;;
6665;SDS011;3369;49.906;8.598;2023-05-23T00:34:39;19.67;;;17.67;;
6665;SDS011;3369;49.906;8.598;2023-05-23T00:37:04;20.27;;;18.10;;
6665;SDS011;3369;49.906;8.598;2023-05-23T00:39:30;20.23;;;18.23;;
6665;SDS011;3369;49.906;8.598;2023-05-23T00:41:56;20.83;;;18.67;;
6665;SDS011;3369;49.906;8.598;2023-05-23T00:44:22;19.90;;;17.83;;
6665;SDS011;3369;49.906;8.598;2023-05-23T00:46:52;20.10;;;18.00;;
6665;SDS011;3369;49.906;8.598;2023-05-23T00:49:20;20.47;;;17.57;;
6665;SDS011;3369;49.906;8.598;2023-05-23T00:51:46;26.00;;;22.37;;
6665;SDS011;3369;49.906;8.598;2023-05-23T00:54:13;20.80;;;18.40;;
6665;SDS011;3369;49.906;8.598;2023-05-23T00:56:42;21.23;;;19.00;;
6665;SDS011;3369;49.906;8.598;2023-05-23T00:59:08;21.33;;;19.03;;
6665;SDS011;3369;49.906;8.598;2023-05-23T01:01:34;23.60;;;19.27;;
6665;SDS011;3369;49.906;8.598;2023-05-23T01:04:01;20.70;;;18.50;;
6665;SDS011;3369;49.906;8.598;2023-05-23T01:06:28;19.47;;;17.37;;
6665;SDS011;3369;49.906;8.598;2023-05-23T01:29:47;25.13;;;21.43;;
6665;SDS011;3369;49.906;8.598;2023-05-23T01:32:20;20.87;;;18.77;;
6665;SDS011;3369;49.906;8.598;2023-05-23T01:34:49;23.53;;;20.27;;
6665;SDS011;3369;49.906;8.598;2023-05-23T01:37:17;23.90;;;20.40;;
6665;SDS011;3369;49.906;8.598;2023-05-23T01:39:43;20.93;;;18.07;;
6665;SDS011;3369;49.906;8.598;2023-05-23T01:42:09;21.07;;;18.87;;
6665;SDS011;3369;49.906;8.598;2023-05-23T01:44:35;19.67;;;17.50;;
6665;SDS011;3369;49.906;8.598;2023-05-23T01:47:02;23.47;;;18.37;;
6665;SDS011;3369;49.906;8.598;2023-05-23T01:49:29;16.80;;;15.20;;
6665;SDS011;3369;49.906;8.598;2023-05-23T01:51:58;19.87;;;17.73;;
6665;SDS011;3369;49.906;8.598;2023-05-23T01:54:25;22.73;;;20.33;;
6665;SDS011;3369;49.906;8.598;2023-05-23T01:56:53;24.50;;;20.67;;
6665;SDS011;3369;49.906;8.598;2023-05-23T01:59:23;20.27;;;18.20;;
6665;SDS011;3369;49.906;8.598;2023-05-23T02:01:49;18.40;;;16.53;;
6665;SDS011;3369;49.906;8.598;2023-05-23T02:04:14;18.30;;;16.40;;
6665;SDS011;3369;49.906;8.598;2023-05-23T02:06:40;18.50;;;16.60;;
6665;SDS011;3369;49.906;8.598;2023-05-23T02:09:06;19.30;;;17.30;;
6665;SDS011;3369;49.906;8.598;2023-05-23T02:11:32;20.07;;;18.00;;
6665;SDS011;3369;49.906;8.598;2023-05-23T02:13:58;17.30;;;15.60;;
6665;SDS011;3369;49.906;8.598;2023-05-23T02:16:23;22.63;;;18.50;;
6665;SDS011;3369;49.906;8.598;2023-05-23T02:18:50;24.27;;;20.67;;
6665;SDS011;3369;49.906;8.598;2023-05-23T02:21:17;23.60;;;20.73;;
6665;SDS011;3369;49.906;8.598;2023-05-23T02:23:42;24.23;;;21.50;;
6665;SDS011;3369;49.906;8.598;2023-05-23T02:26:08;20.40;;;18.40;;
6665;SDS011;3369;49.906;8.598;2023-05-23T02:28:34;20.00;;;17.90;;
6665;SDS011;3369;49.906;8.598;2023-05-23T02:30:59;18.63;;;16.73;;
6665;SDS011;3369;49.906;8.598;2023-05-23T02:33:26;18.40;;;16.50;;
6665;SDS011;3369;49.906;8.598;2023-05-23T02:35:51;18.77;;;16.87;;
6665;SDS011;3369;49.906;8.598;2023-05-23T02:38:19;24.13;;;21.63;;
6665;SDS011;3369;49.906;8.598;2023-05-23T02:40:44;23.60;;;19.83;;
6665;SDS011;3369;49.906;8.598;2023-05-23T02:43:10;20.60;;;18.43;;
6665;SDS011;3369;49.906;8.598;2023-05-23T02:45:36;20.53;;;18.37;;
6665;SDS011;3369;49.906;8.598;2023-05-23T02:48:01;20.37;;;18.30;;
6665;SDS011;3369;49.906;8.598;2023-05-23T02:50:27;18.07;;;16.37;;
6665;SDS011;3369;49.906;8.598;2023-05-23T02:52:53;20.43;;;18.23;;
6665;SDS011;3369;49.906;8.598;2023-05-23T02:55:18;20.40;;;18.20;;
6665;SDS011;3369;49.906;8.598;2023-05-23T02:57:44;21.33;;;19.10;;
6665;SDS011;3369;49.906;8.598;2023-05-23T03:00:10;21.03;;;18.93;;
6665;SDS011;3369;49.906;8.598;2023-05-23T03:02:36;21.27;;;19.13;;
6665;SDS011;3369;49.906;8.598;2023-05-23T03:05:01;18.63;;;16.93;;
6665;SDS011;3369;49.906;8.598;2023-05-23T03:07:28;21.07;;;18.83;;
6665;SDS011;3369;49.906;8.598;2023-05-23T03:09:54;18.13;;;16.33;;
6665;SDS011;3369;49.906;8.598;2023-05-23T03:12:20;16.67;;;15.13;;
6665;SDS011;3369;49.906;8.598;2023-05-23T03:14:45;17.07;;;15.47;;
6665;SDS011;3369;49.906;8.598;2023-05-23T03:17:12;16.20;;;14.60;;
6665;SDS011;3369;49.906;8.598;2023-05-23T03:19:38;17.37;;;15.77;;
6665;SDS011;3369;49.906;8.598;2023-05-23T03:22:04;16.37;;;14.77;;
6665;SDS011;3369;49.906;8.598;2023-05-23T03:24:29;18.30;;;16.40;;
6665;SDS011;3369;49.906;8.598;2023-05-23T03:26:55;16.93;;;15.23;;
6665;SDS011;3369;49.906;8.598;2023-05-23T03:29:21;15.87;;;14.30;;
6665;SDS011;3369;49.906;8.598;2023-05-23T03:31:47;16.10;;;14.50;;
6665;SDS011;3369;49.906;8.598;2023-05-23T03:34:12;15.17;;;13.77;;
6665;SDS011;3369;49.906;8.598;2023-05-23T03:36:38;16.53;;;14.93;;
6665;SDS011;3369;49.906;8.598;2023-05-23T03:39:04;15.60;;;14.07;;
6665;SDS011;3369;49.906;8.598;2023-05-23T03:41:30;16.90;;;15.20;;
6665;SDS011;3369;49.906;8.598;2023-05-23T03:43:55;16.77;;;15.07;;
6665;SDS011;3369;49.906;8.598;2023-05-23T03:46:21;15.07;;;13.60;;
6665;SDS011;3369;49.906;8.598;2023-05-23T03:48:47;18.17;;;16.17;;
6665;SDS011;3369;49.906;8.598;2023-05-23T03:51:13;17.80;;;16.00;;
6665;SDS011;3369;49.906;8.598;2023-05-23T03:53:38;16.70;;;15.00;;
6665;SDS011;3369;49.906;8.598;2023-05-23T03:56:04;16.70;;;15.00;;
6665;SDS011;3369;49.906;8.598;2023-05-23T03:58:30;16.43;;;14.27;;
6665;SDS011;3369;49.906;8.598;2023-05-23T04:00:56;15.50;;;14.03;;
6665;SDS011;3369;49.906;8.598;2023-05-23T04:03:21;14.80;;;13.33;;
6665;SDS011;3369;49.906;8.598;2023-05-23T04:05:47;13.07;;;11.80;;
6665;SDS011;3369;49.906;8.598;2023-05-23T04:08:13;15.03;;;13.53;;
6665;SDS011;3369;49.906;8.598;2023-05-23T04:10:39;15.33;;;13.80;;
6665;SDS011;3369;49.906;8.598;2023-05-23T04:13:05;16.20;;;14.67;;
6665;SDS011;3369;49.906;8.598;2023-05-23T04:15:31;16.77;;;15.03;;
6665;SDS011;3369;49.906;8.598;2023-05-23T04:17:58;17.43;;;15.53;;
6665;SDS011;3369;49.906;8.598;2023-05-23T04:20:24;19.40;;;17.30;;
6665;SDS011;3369;49.906;8.598;2023-05-23T04:22:49;17.83;;;15.60;;
6665;SDS011;3369;49.906;8.598;2023-05-23T04:25:15;15.50;;;14.00;;
6665;SDS011;3369;49.906;8.598;2023-05-23T04:27:42;15.77;;;14.17;;
6665;SDS011;3369;49.906;8.598;2023-05-23T04:30:08;16.87;;;15.23;;
6665;SDS011;3369;49.906;8.598;2023-05-23T04:32:35;17.33;;;15.63;;
6665;SDS011;3369;49.906;8.598;2023-05-23T04:35:02;19.57;;;17.50;;
6665;SDS011;3369;49.906;8.598;2023-05-23T04:37:28;24.30;;;21.63;;
6665;SDS011;3369;49.906;8.598;2023-05-23T04:39:56;21.90;;;19.50;;
6665;SDS011;3369;49.906;8.598;2023-05-23T04:42:23;22.27;;;19.87;;
6665;SDS011;3369;49.906;8.598;2023-05-23T04:44:50;21.97;;;19.40;;
6665;SDS011;3369;49.906;8.598;2023-05-23T04:47:16;23.07;;;20.67;;
6665;SDS011;3369;49.906;8.598;2023-05-23T04:49:43;22.87;;;20.47;;
6665;SDS011;3369;49.906;8.598;2023-05-23T04:52:09;22.97;;;20.47;;
6665;SDS011;3369;49.906;8.598;2023-05-23T04:54:34;20.70;;;18.60;;
6665;SDS011;3369;49.906;8.598;2023-05-23T04:57:01;19.53;;;17.43;;
6665;SDS011;3369;49.906;8.598;2023-05-23T04:59:27;19.77;;;17.67;;
6665;SDS011;3369;49.906;8.598;2023-05-23T05:01:52;19.37;;;17.40;;
6665;SDS011;3369;49.906;8.598;2023-05-23T05:04:18;18.53;;;16.73;;
6665;SDS011;3369;49.906;8.598;2023-05-23T05:06:44;18.57;;;16.77;;
6665;SDS011;3369;49.906;8.598;2023-05-23T05:09:12;19.70;;;16.87;;
6665;SDS011;3369;49.906;8.598;2023-05-23T05:11:37;17.87;;;16.17;;
6665;SDS011;3369;49.906;8.598;2023-05-23T05:14:03;17.40;;;15.70;;
6665;SDS011;3369;49.906;8.598;2023-05-23T05:16:28;16.87;;;15.27;;
6665;SDS011;3369;49.906;8.598;2023-05-23T05:18:54;16.63;;;14.93;;
6665;SDS011;3369;49.906;8.598;2023-05-23T05:21:21;16.97;;;15.37;;
6665;SDS011;3369;49.906;8.598;2023-05-23T05:23:46;18.47;;;16.43;;
6665;SDS011;3369;49.906;8.598;2023-05-23T05:26:12;20.13;;;16.37;;
6665;SDS011;3369;49.906;8.598;2023-05-23T05:28:37;18.47;;;14.67;;
6665;SDS011;3369;49.906;8.598;2023-05-23T05:31:03;15.90;;;14.30;;
6665;SDS011;3369;49.906;8.598;2023-05-23T05:33:29;16.63;;;15.03;;
6665;SDS011;3369;49.906;8.598;2023-05-23T05:36:02;16.37;;;14.77;;
6665;SDS011;3369;49.906;8.598;2023-05-23T05:38:30;15.73;;;14.30;;
6665;SDS011;3369;49.906;8.598;2023-05-23T05:40:56;17.20;;;15.60;;
6665;SDS011;3369;49.906;8.598;2023-05-23T05:43:22;17.87;;;16.13;;
6665;SDS011;3369;49.906;8.598;2023-05-23T05:45:47;15.57;;;13.93;;
6665;SDS011;3369;49.906;8.598;2023-05-23T05:48:13;16.50;;;14.83;;
6665;SDS011;3369;49.906;8.598;2023-05-23T05:50:39;17.30;;;15.63;;
6665;SDS011;3369;49.906;8.598;2023-05-23T05:53:04;17.50;;;15.80;;
6665;SDS011;3369;49.906;8.598;2023-05-23T05:55:32;17.47;;;15.67;;
6665;SDS011;3369;49.906;8.598;2023-05-23T05:57:57;16.37;;;14.70;;
6665;SDS011;3369;49.906;8.598;2023-05-23T06:00:23;15.57;;;14.13;;
6665;SDS011;3369;49.906;8.598;2023-05-23T06:02:49;15.03;;;13.43;;
6665;SDS011;3369;49.906;8.598;2023-05-23T06:05:21;15.67;;;14.27;;
6665;SDS011;3369;49.906;8.598;2023-05-23T06:07:47;15.07;;;13.77;;
6665;SDS011;3369;49.906;8.598;2023-05-23T06:10:14;14.20;;;12.87;;
6665;SDS011;3369;49.906;8.598;2023-05-23T06:12:40;15.40;;;14.00;;
6665;SDS011;3369;49.906;8.598;2023-05-23T06:15:06;16.50;;;15.00;;
6665;SDS011;3369;49.906;8.598;2023-05-23T06:17:33;14.13;;;12.83;;
6665;SDS011;3369;49.906;8.598;2023-05-23T06:19:59;11.77;;;10.60;;
6665;SDS011;3369;49.906;8.598;2023-05-23T06:22:25;11.17;;;10.13;;
6665;SDS011;3369;49.906;8.598;2023-05-23T06:24:50;9.23;;;8.53;;
6665;SDS011;3369;49.906;8.598;2023-05-23T06:27:16;9.50;;;8.70;;
6665;SDS011;3369;49.906;8.598;2023-05-23T06:29:42;9.80;;;9.00;;
6665;SDS011;3369;49.906;8.598;2023-05-23T06:32:07;8.97;;;8.07;;
6665;SDS011;3369;49.906;8.598;2023-05-23T06:34:33;8.80;;;8.00;;
6665;SDS011;3369;49.906;8.598;2023-05-23T06:36:58;9.03;;;8.23;;
6665;SDS011;3369;49.906;8.598;2023-05-23T06:39:24;8.13;;;7.43;;
6665;SDS011;3369;49.906;8.598;2023-05-23T06:41:50;8.63;;;7.83;;
6665;SDS011;3369;49.906;8.598;2023-05-23T06:44:15;8.50;;;7.80;;
6665;SDS011;3369;49.906;8.598;2023-05-23T06:46:41;7.67;;;7.03;;
6665;SDS011;3369;49.906;8.598;2023-05-23T06:49:09;6.93;;;6.43;;
6665;SDS011;3369;49.906;8.598;2023-05-23T07:13:06;6.57;;;5.97;;
6665;SDS011;3369;49.906;8.598;2023-05-23T07:15:32;8.33;;;7.53;;
6665;SDS011;3369;49.906;8.598;2023-05-23T07:17:57;7.43;;;6.83;;
6665;SDS011;3369;49.906;8.598;2023-05-23T07:20:23;7.40;;;6.70;;
6665;SDS011;3369;49.906;8.598;2023-05-23T07:22:48;6.97;;;6.37;;
6665;SDS011;3369;49.906;8.598;2023-05-23T07:25:15;7.60;;;7.00;;
6665;SDS011;3369;49.906;8.598;2023-05-23T07:27:41;7.77;;;7.13;;
6665;SDS011;3369;49.906;8.598;2023-05-23T07:30:07;8.93;;;8.23;;
6665;SDS011;3369;49.906;8.598;2023-05-23T07:32:34;9.40;;;8.60;;
6665;SDS011;3369;49.906;8.598;2023-05-23T07:35:00;8.83;;;8.13;;
6665;SDS011;3369;49.906;8.598;2023-05-23T07:37:26;9.47;;;8.67;;
6665;SDS011;3369;49.906;8.598;2023-05-23T07:39:52;9.20;;;8.40;;
6665;SDS011;3369;49.906;8.598;2023-05-23T07:42:18;9.33;;;8.43;;
6665;SDS011;3369;49.906;8.598;2023-05-23T07:44:43;8.90;;;8.20;;
6665;SDS011;3369;49.906;8.598;2023-05-23T07:47:09;9.40;;;8.57;;
6665;SDS011;3369;49.906;8.598;2023-05-23T07:49:35;8.07;;;7.47;;
6665;SDS011;3369;49.906;8.598;2023-05-23T07:52:00;9.00;;;8.13;;
6665;SDS011;3369;49.906;8.598;2023-05-23T07:54:26;8.50;;;7.80;;
6665;SDS011;3369;49.906;8.598;2023-05-23T07:56:52;8.17;;;7.47;;
6665;SDS011;3369;49.906;8.598;2023-05-23T07:59:18;7.70;;;7.10;;
6665;SDS011;3369;49.906;8.598;2023-05-23T08:01:44;7.10;;;6.50;;
6665;SDS011;3369;49.906;8.598;2023-05-23T08:04:10;8.37;;;7.67;;
6665;SDS011;3369;49.906;8.598;2023-05-23T08:06:35;6.83;;;6.23;;
6665;SDS011;3369;49.906;8.598;2023-05-23T08:09:02;7.00;;;6.43;;
6665;SDS011;3369;49.906;8.598;2023-05-23T08:11:30;7.23;;;6.63;;
6665;SDS011;3369;49.906;8.598;2023-05-23T08:13:56;6.53;;;6.03;;
6665;SDS011;3369;49.906;8.598;2023-05-23T08:16:23;6.53;;;5.93;;
6665;SDS011;3369;49.906;8.598;2023-05-23T08:18:49;5.63;;;5.23;;
6665;SDS011;3369;49.906;8.598;2023-05-23T08:21:16;5.10;;;4.70;;
6665;SDS011;3369;49.906;8.598;2023-05-23T08:23:41;5.53;;;5.13;;
6665;SDS011;3369;49.906;8.598;2023-05-23T08:26:07;4.63;;;4.23;;
6665;SDS011;3369;49.906;8.598;2023-05-23T08:28:32;4.50;;;4.20;;
6665;SDS011;3369;49.906;8.598;2023-05-23T08:30:58;4.90;;;4.57;;
6665;SDS011;3369;49.906;8.598;2023-05-23T08:33:25;5.20;;;4.70;;
6665;SDS011;3369;49.906;8.598;2023-05-23T08:35:50;4.77;;;4.37;;
6665;SDS011;3369;49.906;8.598;2023-05-23T08:38:16;4.73;;;4.23;;
6665;SDS011;3369;49.906;8.598;2023-05-23T08:40:48;4.47;;;4.17;;
6665;SDS011;3369;49.906;8.598;2023-05-23T08:43:17;4.33;;;3.93;;
6665;SDS011;3369;49.906;8.598;2023-05-23T08:45:44;4.37;;;3.97;;
6665;SDS011;3369;49.906;8.598;2023-05-23T08:48:11;3.90;;;3.63;;
6665;SDS011;3369;49.906;8.598;2023-05-23T08:50:39;4.50;;;4.10;;
6665;SDS011;3369;49.906;8.598;2023-05-23T08:53:08;4.00;;;3.70;;
6665;SDS011;3369;49.906;8.598;2023-05-23T08:55:34;4.80;;;4.30;;
6665;SDS011;3369;49.906;8.598;2023-05-23T08:58:02;4.83;;;3.87;;
6665;SDS011;3369;49.906;8.598;2023-05-23T09:00:28;4.20;;;3.80;;
6665;SDS011;3369;49.906;8.598;2023-05-23T09:02:54;3.70;;;3.40;;
6665;SDS011;3369;49.906;8.598;2023-05-23T09:05:20;3.90;;;3.67;;
6665;SDS011;3369;49.906;8.598;2023-05-23T09:07:47;3.77;;;3.30;;
6665;SDS011;3369;49.906;8.598;2023-05-23T09:10:13;3.83;;;3.53;;
6665;SDS011;3369;49.906;8.598;2023-05-23T09:12:44;3.50;;;3.20;;
6665;SDS011;3369;49.906;8.598;2023-05-23T09:15:09;3.57;;;3.27;;
6665;SDS011;3369;49.906;8.598;2023-05-23T09:17:36;4.07;;;3.77;;
6665;SDS011;3369;49.906;8.598;2023-05-23T09:20:15;4.00;;;3.70;;
6665;SDS011;3369;49.906;8.598;2023-05-23T09:22:45;3.37;;;3.17;;
6665;SDS011;3369;49.906;8.598;2023-05-23T09:25:12;3.40;;;3.10;;
6665;SDS011;3369;49.906;8.598;2023-05-23T09:27:38;4.03;;;3.77;;
6665;SDS011;3369;49.906;8.598;2023-05-23T09:30:04;4.37;;;3.63;;
6665;SDS011;3369;49.906;8.598;2023-05-23T09:32:34;3.50;;;3.30;;
6665;SDS011;3369;49.906;8.598;2023-05-23T09:35:01;3.70;;;3.40;;
6665;SDS011;3369;49.906;8.598;2023-05-23T09:40:05;3.50;;;2.90;;
6665;SDS011;3369;49.906;8.598;2023-05-23T09:42:34;3.87;;;3.47;;
6665;SDS011;3369;49.906;8.598;2023-05-23T09:45:01;3.17;;;2.97;;
6665;SDS011;3369;49.906;8.598;2023-05-23T09:47:27;3.30;;;3.10;;
6665;SDS011;3369;49.906;8.598;2023-05-23T09:49:53;3.70;;;3.37;;
6665;SDS011;3369;49.906;8.598;2023-05-23T09:52:19;3.10;;;2.90;;
6665;SDS011;3369;49.906;8.598;2023-05-23T09:54:45;3.37;;;3.17;;
6665;SDS011;3369;49.906;8.598;2023-05-23T09:57:11;3.10;;;2.90;;
6665;SDS011;3369;49.906;8.598;2023-05-23T09:59:40;5.97;;;3.27;;
6665;SDS011;3369;49.906;8.598;2023-05-23T10:02:07;3.90;;;3.60;;
6665;SDS011;3369;49.906;8.598;2023-05-23T10:04:36;3.83;;;3.53;;
6665;SDS011;3369;49.906;8.598;2023-05-23T10:07:06;3.90;;;3.60;;
6665;SDS011;3369;49.906;8.598;2023-05-23T10:09:38;4.00;;;3.70;;
6665;SDS011;3369;49.906;8.598;2023-05-23T10:14:57;3.43;;;3.20;;
6665;SDS011;3369;49.906;8.598;2023-05-23T10:17:45;3.50;;;3.30;;
6665;SDS011;3369;49.906;8.598;2023-05-23T10:20:38;3.50;;;3.20;;
6665;SDS011;3369;49.906;8.598;2023-05-23T10:23:07;4.47;;;3.63;;
6665;SDS011;3369;49.906;8.598;2023-05-23T10:25:32;3.83;;;3.53;;
6665;SDS011;3369;49.906;8.598;2023-05-23T10:28:01;5.37;;;3.97;;
6665;SDS011;3369;49.906;8.598;2023-05-23T10:30:27;4.00;;;3.70;;
6665;SDS011;3369;49.906;8.598;2023-05-23T10:32:54;3.73;;;3.30;;
6665;SDS011;3369;49.906;8.598;2023-05-23T10:35:41;3.50;;;3.23;;
6665;SDS011;3369;49.906;8.598;2023-05-23T10:38:35;3.70;;;3.50;;
6665;SDS011;3369;49.906;8.598;2023-05-23T10:41:23;3.20;;;2.90;;
6665;SDS011;3369;49.906;8.598;2023-05-23T10:52:06;3.70;;;3.40;;
6665;SDS011;3369;49.906;8.598;2023-05-23T10:54:40;3.90;;;3.50;;
6665;SDS011;3369;49.906;8.598;2023-05-23T10:57:16;4.20;;;3.27;;
6665;SDS011;3369;49.906;8.598;2023-05-23T10:59:48;3.57;;;3.27;;
6665;SDS011;3369;49.906;8.598;2023-05-23T11:02:15;3.83;;;3.53;;
6665;SDS011;3369;49.906;8.598;2023-05-23T11:04:53;3.73;;;3.43;;
6665;SDS011;3369;49.906;8.598;2023-05-23T11:08:06;4.17;;;3.87;;
6665;SDS011;3369;49.906;8.598;2023-05-23T11:10:50;5.17;;;3.87;;
6665;SDS011;3369;49.906;8.598;2023-05-23T11:13:40;4.00;;;3.70;;
6665;SDS011;3369;49.906;8.598;2023-05-23T11:16:39;3.97;;;3.67;;
6665;SDS011;3369;49.906;8.598;2023-05-23T11:21:44;4.67;;;4.27;;
6665;SDS011;3369;49.906;8.598;2023-05-23T11:24:10;4.67;;;4.27;;
6665;SDS011;3369;49.906;8.598;2023-05-23T11:26:37;5.20;;;4.70;;
6665;SDS011;3369;49.906;8.598;2023-05-23T11:29:03;5.33;;;4.83;;
6665;SDS011;3369;49.906;8.598;2023-05-23T11:31:36;5.13;;;4.63;;
6665;SDS011;3369;49.906;8.598;2023-05-23T11:34:04;5.57;;;5.07;;
6665;SDS011;3369;49.906;8.598;2023-05-23T11:36:31;6.10;;;4.93;;
6665;SDS011;3369;49.906;8.598;2023-05-23T11:38:57;4.72;;;4.32;;
6665;SDS011;3369;49.906;8.598;2023-05-23T11:41:29;5.00;;;4.60;;
6665;SDS011;3369;49.906;8.598;2023-05-23T11:43:57;5.10;;;4.70;;
6665;SDS011;3369;49.906;8.598;2023-05-23T11:46:25;5.20;;;4.80;;
6665;SDS011;3369;49.906;8.598;2023-05-23T11:48:51;4.95;;;4.65;;
6665;SDS011;3369;49.906;8.598;2023-05-23T11:51:17;4.65;;;4.25;;
6665;SDS011;3369;49.906;8.598;2023-05-23T11:53:43;4.65;;;4.25;;
6665;SDS011;3369;49.906;8.598;2023-05-23T11:56:10;4.10;;;3.80;;
6665;SDS011;3369;49.906;8.598;2023-05-23T11:58:36;3.63;;;3.33;;
6665;SDS011;3369;49.906;8.598;2023-05-23T12:01:04;4.35;;;3.95;;
6665;SDS011;3369;49.906;8.598;2023-05-23T12:03:34;4.97;;;3.53;;
6665;SDS011;3369;49.906;8.598;2023-05-23T12:06:10;3.53;;;3.33;;
6665;SDS011;3369;49.906;8.598;2023-05-23T12:08:38;3.93;;;3.60;;
6665;SDS011;3369;49.906;8.598;2023-05-23T12:11:04;3.87;;;3.07;;
6665;SDS011;3369;49.906;8.598;2023-05-23T12:13:31;3.83;;;3.53;;
6665;SDS011;3369;49.906;8.598;2023-05-23T12:15:58;3.78;;;3.38;;
6665;SDS011;3369;49.906;8.598;2023-05-23T12:18:28;4.13;;;3.73;;
6665;SDS011;3369;49.906;8.598;2023-05-23T12:20:59;4.00;;;3.37;;
6665;SDS011;3369;49.906;8.598;2023-05-23T12:23:29;4.10;;;3.73;;
6665;SDS011;3369;49.906;8.598;2023-05-23T12:25:56;3.80;;;3.50;;
6665;SDS011;3369;49.906;8.598;2023-05-23T12:28:41;3.00;;;2.80;;
6665;SDS011;3369;49.906;8.598;2023-05-23T12:31:19;2.70;;;2.50;;
6665;SDS011;3369;49.906;8.598;2023-05-23T12:33:47;4.43;;;2.57;;
6665;SDS011;3369;49.906;8.598;2023-05-23T12:36:24;2.80;;;2.60;;
6665;SDS011;3369;49.906;8.598;2023-05-23T12:38:51;3.30;;;2.87;;
6665;SDS011;3369;49.906;8.598;2023-05-23T12:41:18;2.83;;;2.40;;
6665;SDS011;3369;49.906;8.598;2023-05-23T12:43:48;3.07;;;2.87;;
6665;SDS011;3369;49.906;8.598;2023-05-23T12:46:19;3.10;;;2.90;;
6665;SDS011;3369;49.906;8.598;2023-05-23T12:48:45;2.50;;;2.30;;
6665;SDS011;3369;49.906;8.598;2023-05-23T12:51:11;2.50;;;2.30;;
6665;SDS011;3369;49.906;8.598;2023-05-23T12:53:37;2.47;;;2.27;;
6665;SDS011;3369;49.906;8.598;2023-05-23T12:56:03;3.40;;;3.20;;
6665;SDS011;3369;49.906;8.598;2023-05-23T12:58:29;3.30;;;3.07;;
6665;SDS011;3369;49.906;8.598;2023-05-23T13:00:56;2.27;;;2.17;;
6665;SDS011;3369;49.906;8.598;2023-05-23T13:03:22;2.37;;;2.17;;
6665;SDS011;3369;49.906;8.598;2023-05-23T13:05:48;1.93;;;1.77;;
6665;SDS011;3369;49.906;8.598;2023-05-23T13:29:55;2.43;;;2.23;;
6665;SDS011;3369;49.906;8.598;2023-05-23T13:32:20;2.40;;;2.20;;
6665;SDS011;3369;49.906;8.598;2023-05-23T13:34:46;2.67;;;2.10;;
6665;SDS011;3369;49.906;8.598;2023-05-23T13:37:12;2.10;;;2.00;;
6665;SDS011;3369;49.906;8.598;2023-05-23T13:39:37;2.20;;;2.00;;
6665;SDS011;3369;49.906;8.598;2023-05-23T13:42:03;2.60;;;2.40;;
6665;SDS011;3369;49.906;8.598;2023-05-23T13:44:29;2.57;;;2.37;;
6665;SDS011;3369;49.906;8.598;2023-05-23T13:46:56;2.77;;;2.17;;
6665;SDS011;3369;49.906;8.598;2023-05-23T13:49:22;2.70;;;2.40;;
6665;SDS011;3369;49.906;8.598;2023-05-23T13:51:48;3.57;;;2.40;;
6665;SDS011;3369;49.906;8.598;2023-05-23T13:54:14;2.60;;;2.40;;
6665;SDS011;3369;49.906;8.598;2023-05-23T13:56:40;2.70;;;2.50;;
6665;SDS011;3369;49.906;8.598;2023-05-23T13:59:05;3.03;;;2.47;;
6665;SDS011;3369;49.906;8.598;2023-05-23T14:01:31;2.93;;;2.40;;
6665;SDS011;3369;49.906;8.598;2023-05-23T14:03:57;3.43;;;3.13;;
6665;SDS011;3369;49.906;8.598;2023-05-23T14:06:22;3.57;;;2.83;;
6665;SDS011;3369;49.906;8.598;2023-05-23T14:08:48;3.83;;;3.10;;
6665;SDS011;3369;49.906;8.598;2023-05-23T14:11:14;3.73;;;3.40;;
6665;SDS011;3369;49.906;8.598;2023-05-23T14:13:39;4.03;;;3.60;;
6665;SDS011;3369;49.906;8.598;2023-05-23T14:16:05;5.47;;;4.20;;
6665;SDS011;3369;49.906;8.598;2023-05-23T14:18:31;4.00;;;3.70;;
6665;SDS011;3369;49.906;8.598;2023-05-23T14:20:56;6.00;;;4.00;;
6665;SDS011;3369;49.906;8.598;2023-05-23T14:23:22;5.03;;;4.00;;
6665;SDS011;3369;49.906;8.598;2023-05-23T14:25:48;4.00;;;3.53;;
6665;SDS011;3369;49.906;8.598;2023-05-23T14:28:14;5.47;;;3.93;;
6665;SDS011;3369;49.906;8.598;2023-05-23T14:30:39;6.23;;;3.77;;
6665;SDS011;3369;49.906;8.598;2023-05-23T14:33:05;4.10;;;3.77;;
6665;SDS011;3369;49.906;8.598;2023-05-23T14:35:30;3.90;;;3.60;;
6665;SDS011;3369;49.906;8.598;2023-05-23T14:37:56;4.30;;;3.73;;
6665;SDS011;3369;49.906;8.598;2023-05-23T14:40:22;4.47;;;4.07;;
6665;SDS011;3369;49.906;8.598;2023-05-23T14:42:47;7.97;;;4.53;;
6665;SDS011;3369;49.906;8.598;2023-05-23T14:45:13;5.00;;;4.47;;
6665;SDS011;3369;49.906;8.598;2023-05-23T14:47:38;5.47;;;4.17;;
6665;SDS011;3369;49.906;8.598;2023-05-23T14:50:04;5.03;;;4.53;;
6665;SDS011;3369;49.906;8.598;2023-05-23T14:52:30;5.80;;;4.60;;
6665;SDS011;3369;49.906;8.598;2023-05-23T14:54:56;5.63;;;5.13;;
6665;SDS011;3369;49.906;8.598;2023-05-23T14:57:23;6.70;;;4.67;;
6665;SDS011;3369;49.906;8.598;2023-05-23T14:59:48;5.47;;;4.97;;
6665;SDS011;3369;49.906;8.598;2023-05-23T15:02:14;5.97;;;4.90;;
6665;SDS011;3369;49.906;8.598;2023-05-23T15:04:41;7.60;;;5.90;;
6665;SDS011;3369;49.906;8.598;2023-05-23T15:07:06;6.43;;;5.40;;
6665;SDS011;3369;49.906;8.598;2023-05-23T15:09:32;6.67;;;5.27;;
6665;SDS011;3369;49.906;8.598;2023-05-23T15:11:58;6.40;;;5.83;;
6665;SDS011;3369;49.906;8.598;2023-05-23T15:14:24;6.70;;;5.80;;
6665;SDS011;3369;49.906;8.598;2023-05-23T15:16:53;7.80;;;6.27;;
6665;SDS011;3369;49.906;8.598;2023-05-23T15:19:19;7.90;;;6.10;;
6665;SDS011;3369;49.906;8.598;2023-05-23T15:21:45;9.67;;;6.47;;
6665;SDS011;3369;49.906;8.598;2023-05-23T15:24:11;8.37;;;6.13;;
6665;SDS011;3369;49.906;8.598;2023-05-23T15:26:37;7.07;;;5.60;;
6665;SDS011;3369;49.906;8.598;2023-05-23T15:29:02;6.90;;;6.13;;
6665;SDS011;3369;49.906;8.598;2023-05-23T15:31:28;9.67;;;6.00;;
6665;SDS011;3369;49.906;8.598;2023-05-23T15:33:53;6.50;;;5.67;;
6665;SDS011;3369;49.906;8.598;2023-05-23T15:36:19;8.43;;;5.77;;
6665;SDS011;3369;49.906;8.598;2023-05-23T15:38:45;7.30;;;5.63;;
6665;SDS011;3369;49.906;8.598;2023-05-23T15:41:10;7.27;;;5.53;;
6665;SDS011;3369;49.906;8.598;2023-05-23T15:43:36;7.23;;;5.33;;
6665;SDS011;3369;49.906;8.598;2023-05-23T15:46:02;5.03;;;4.50;;
6665;SDS011;3369;49.906;8.598;2023-05-23T15:48:28;4.57;;;4.17;;
6665;SDS011;3369;49.906;8.598;2023-05-23T15:50:54;5.07;;;4.57;;
6665;SDS011;3369;49.906;8.598;2023-05-23T15:53:19;4.57;;;4.17;;
6665;SDS011;3369;49.906;8.598;2023-05-23T15:55:45;4.43;;;4.03;;
6665;SDS011;3369;49.906;8.598;2023-05-23T15:58:11;4.77;;;4.13;;
6665;SDS011;3369;49.906;8.598;2023-05-23T16:00:37;5.30;;;4.63;;
6665;SDS011;3369;49.906;8.598;2023-05-23T16:03:02;5.90;;;5.27;;
6665;SDS011;3369;49.906;8.598;2023-05-23T16:05:28;5.40;;;4.70;;
6665;SDS011;3369;49.906;8.598;2023-05-23T16:07:54;5.37;;;4.40;;
6665;SDS011;3369;49.906;8.598;2023-05-23T16:10:19;5.17;;;4.60;;
6665;SDS011;3369;49.906;8.598;2023-05-23T16:12:45;5.93;;;4.97;;
6665;SDS011;3369;49.906;8.598;2023-05-23T16:15:11;4.97;;;4.53;;
6665;SDS011;3369;49.906;8.598;2023-05-23T16:17:36;4.70;;;4.27;;
6665;SDS011;3369;49.906;8.598;2023-05-23T16:20:02;4.60;;;4.20;;
6665;SDS011;3369;49.906;8.598;2023-05-23T16:22:28;5.27;;;4.77;;
6665;SDS011;3369;49.906;8.598;2023-05-23T16:24:55;5.67;;;4.70;;